sensor_id;sensor_type;location;lat;lon;timestamp;pressure;altitude;pressure_sealevel;temperature
71081;BMP180;58740;50.672;18.690;2023-12-20T00:02:19;98448.40;;;6.40
71081;BMP180;58740;50.672;18.690;2023-12-20T00:04:52;98448.40;;;6.40
71081;BMP180;58740;50.672;18.690;2023-12-20T00:07:25;98442.80;;;6.40
71081;BMP180;58740;50.672;18.690;2023-12-20T00:09:59;98430.40;;;6.40
71081;BMP180;58740;50.672;18.690;2023-12-20T00:12:32;98428.80;;;6.34
71081;BMP180;58740;50.672;18.690;2023-12-20T00:15:07;98424.60;;;6.32
71081;BMP180;58740;50.672;18.690;2023-12-20T00:17:40;98421.40;;;6.30
71081;BMP180;58740;50.672;18.690;2023-12-20T00:20:14;98422.00;;;6.30
71081;BMP180;58740;50.672;18.690;2023-12-20T00:22:47;98413.60;;;6.30
71081;BMP180;58740;50.672;18.690;2023-12-20T00:25:21;98402.60;;;6.30
71081;BMP180;58740;50.672;18.690;2023-12-20T00:27:54;98411.80;;;6.30
71081;BMP180;58740;50.672;18.690;2023-12-20T00:30:27;98412.60;;;6.30
71081;BMP180;58740;50.672;18.690;2023-12-20T00:33:01;98415.00;;;6.30
71081;BMP180;58740;50.672;18.690;2023-12-20T00:35:34;98421.20;;;6.30
71081;BMP180;58740;50.672;18.690;2023-12-20T00:38:08;98417.00;;;6.30
71081;BMP180;58740;50.672;18.690;2023-12-20T00:40:41;98394.20;;;6.30
71081;BMP180;58740;50.672;18.690;2023-12-20T00:43:15;98403.00;;;6.30
71081;BMP180;58740;50.672;18.690;2023-12-20T00:45:48;98400.40;;;6.30
71081;BMP180;58740;50.672;18.690;2023-12-20T00:48:21;98393.60;;;6.30
71081;BMP180;58740;50.672;18.690;2023-12-20T00:50:54;98400.80;;;6.30
71081;BMP180;58740;50.672;18.690;2023-12-20T00:53:27;98387.00;;;6.30
71081;BMP180;58740;50.672;18.690;2023-12-20T00:56:01;98381.80;;;6.30
71081;BMP180;58740;50.672;18.690;2023-12-20T00:58:34;98390.60;;;6.30
71081;BMP180;58740;50.672;18.690;2023-12-20T01:01:07;98396.20;;;6.30
71081;BMP180;58740;50.672;18.690;2023-12-20T01:03:40;98403.80;;;6.30
71081;BMP180;58740;50.672;18.690;2023-12-20T01:06:14;98397.20;;;6.26
71081;BMP180;58740;50.672;18.690;2023-12-20T01:08:47;98386.80;;;6.22
71081;BMP180;58740;50.672;18.690;2023-12-20T01:11:21;98385.20;;;6.20
71081;BMP180;58740;50.672;18.690;2023-12-20T01:13:54;98378.20;;;6.20
71081;BMP180;58740;50.672;18.690;2023-12-20T01:16:27;98368.00;;;6.20
71081;BMP180;58740;50.672;18.690;2023-12-20T01:19:00;98364.40;;;6.20
71081;BMP180;58740;50.672;18.690;2023-12-20T01:21:34;98353.40;;;6.20
71081;BMP180;58740;50.672;18.690;2023-12-20T01:24:07;98347.20;;;6.20
71081;BMP180;58740;50.672;18.690;2023-12-20T01:26:41;98339.00;;;6.20
71081;BMP180;58740;50.672;18.690;2023-12-20T01:29:14;98323.20;;;6.20
71081;BMP180;58740;50.672;18.690;2023-12-20T01:31:48;98321.20;;;6.20
71081;BMP180;58740;50.672;18.690;2023-12-20T01:34:22;98336.00;;;6.20
71081;BMP180;58740;50.672;18.690;2023-12-20T01:36:55;98338.40;;;6.20
71081;BMP180;58740;50.672;18.690;2023-12-20T01:39:28;98334.60;;;6.20
71081;BMP180;58740;50.672;18.690;2023-12-20T01:42:01;98335.80;;;6.20
71081;BMP180;58740;50.672;18.690;2023-12-20T01:44:35;98336.80;;;6.20
71081;BMP180;58740;50.672;18.690;2023-12-20T01:47:09;98339.40;;;6.20
71081;BMP180;58740;50.672;18.690;2023-12-20T01:49:42;98342.20;;;6.20
71081;BMP180;58740;50.672;18.690;2023-12-20T01:52:16;98344.80;;;6.20
71081;BMP180;58740;50.672;18.690;2023-12-20T01:54:50;98336.60;;;6.20
71081;BMP180;58740;50.672;18.690;2023-12-20T01:57:24;98327.40;;;6.20
71081;BMP180;58740;50.672;18.690;2023-12-20T01:59:58;98319.60;;;6.20
71081;BMP180;58740;50.672;18.690;2023-12-20T02:02:32;98312.20;;;6.20
71081;BMP180;58740;50.672;18.690;2023-12-20T02:05:07;98312.00;;;6.20
71081;BMP180;58740;50.672;18.690;2023-12-20T02:07:41;98295.20;;;6.20
71081;BMP180;58740;50.672;18.690;2023-12-20T02:10:15;98300.80;;;6.20
71081;BMP180;58740;50.672;18.690;2023-12-20T02:12:49;98302.00;;;6.14
71081;BMP180;58740;50.672;18.690;2023-12-20T02:15:22;98298.20;;;6.14
71081;BMP180;58740;50.672;18.690;2023-12-20T02:17:56;98291.00;;;6.18
71081;BMP180;58740;50.672;18.690;2023-12-20T02:20:29;98283.80;;;6.14
71081;BMP180;58740;50.672;18.690;2023-12-20T02:23:02;98284.60;;;6.12
71081;BMP180;58740;50.672;18.690;2023-12-20T02:25:36;98281.80;;;6.18
71081;BMP180;58740;50.672;18.690;2023-12-20T02:28:09;98284.80;;;6.18
71081;BMP180;58740;50.672;18.690;2023-12-20T02:30:42;98279.20;;;6.20
71081;BMP180;58740;50.672;18.690;2023-12-20T02:33:16;98284.40;;;6.20
71081;BMP180;58740;50.672;18.690;2023-12-20T02:35:50;98282.00;;;6.20
71081;BMP180;58740;50.672;18.690;2023-12-20T02:38:24;98285.00;;;6.20
71081;BMP180;58740;50.672;18.690;2023-12-20T02:40:57;98282.40;;;6.20
71081;BMP180;58740;50.672;18.690;2023-12-20T02:43:31;98283.80;;;6.20
71081;BMP180;58740;50.672;18.690;2023-12-20T02:46:04;98281.80;;;6.18
71081;BMP180;58740;50.672;18.690;2023-12-20T02:48:37;98293.20;;;6.20
71081;BMP180;58740;50.672;18.690;2023-12-20T02:51:11;98291.00;;;6.18
71081;BMP180;58740;50.672;18.690;2023-12-20T02:53:44;98284.60;;;6.16
71081;BMP180;58740;50.672;18.690;2023-12-20T02:56:17;98273.40;;;6.18
71081;BMP180;58740;50.672;18.690;2023-12-20T02:58:50;98269.80;;;6.12
71081;BMP180;58740;50.672;18.690;2023-12-20T03:01:24;98267.80;;;6.10
71081;BMP180;58740;50.672;18.690;2023-12-20T03:03:57;98260.00;;;6.10
71081;BMP180;58740;50.672;18.690;2023-12-20T03:06:30;98257.40;;;6.10
71081;BMP180;58740;50.672;18.690;2023-12-20T03:09:04;98253.60;;;6.10
71081;BMP180;58740;50.672;18.690;2023-12-20T03:11:37;98253.20;;;6.10
71081;BMP180;58740;50.672;18.690;2023-12-20T03:14:10;98253.80;;;6.10
71081;BMP180;58740;50.672;18.690;2023-12-20T03:16:48;98250.80;;;6.10
71081;BMP180;58740;50.672;18.690;2023-12-20T03:19:22;98252.00;;;6.10
71081;BMP180;58740;50.672;18.690;2023-12-20T03:21:55;98246.40;;;6.10
71081;BMP180;58740;50.672;18.690;2023-12-20T03:24:28;98249.80;;;6.10
71081;BMP180;58740;50.672;18.690;2023-12-20T03:27:02;98246.20;;;6.10
71081;BMP180;58740;50.672;18.690;2023-12-20T03:29:35;98247.20;;;6.10
71081;BMP180;58740;50.672;18.690;2023-12-20T03:32:08;98244.40;;;6.10
71081;BMP180;58740;50.672;18.690;2023-12-20T03:34:42;98245.00;;;6.10
71081;BMP180;58740;50.672;18.690;2023-12-20T03:37:15;98241.80;;;6.10
71081;BMP180;58740;50.672;18.690;2023-12-20T03:39:49;98237.80;;;6.10
71081;BMP180;58740;50.672;18.690;2023-12-20T03:42:22;98245.00;;;6.10
71081;BMP180;58740;50.672;18.690;2023-12-20T03:44:55;98240.40;;;6.10
71081;BMP180;58740;50.672;18.690;2023-12-20T03:47:28;98241.60;;;6.10
71081;BMP180;58740;50.672;18.690;2023-12-20T03:50:02;98240.40;;;6.10
71081;BMP180;58740;50.672;18.690;2023-12-20T03:52:35;98244.00;;;6.10
71081;BMP180;58740;50.672;18.690;2023-12-20T03:55:09;98242.60;;;6.10
71081;BMP180;58740;50.672;18.690;2023-12-20T03:57:42;98250.60;;;6.10
71081;BMP180;58740;50.672;18.690;2023-12-20T04:00:17;98246.40;;;6.10
71081;BMP180;58740;50.672;18.690;2023-12-20T04:02:50;98243.60;;;6.10
71081;BMP180;58740;50.672;18.690;2023-12-20T04:05:24;98243.20;;;6.10
71081;BMP180;58740;50.672;18.690;2023-12-20T04:07:59;98247.20;;;6.10
71081;BMP180;58740;50.672;18.690;2023-12-20T04:10:33;98247.60;;;6.10
71081;BMP180;58740;50.672;18.690;2023-12-20T04:13:06;98247.00;;;6.10
71081;BMP180;58740;50.672;18.690;2023-12-20T04:15:40;98244.40;;;6.10
71081;BMP180;58740;50.672;18.690;2023-12-20T04:18:13;98249.40;;;6.10
71081;BMP180;58740;50.672;18.690;2023-12-20T04:20:46;98250.20;;;6.10
71081;BMP180;58740;50.672;18.690;2023-12-20T04:23:19;98245.80;;;6.10
71081;BMP180;58740;50.672;18.690;2023-12-20T04:25:52;98234.60;;;6.10
71081;BMP180;58740;50.672;18.690;2023-12-20T04:28:26;98238.40;;;6.10
71081;BMP180;58740;50.672;18.690;2023-12-20T04:31:02;98239.40;;;6.10
71081;BMP180;58740;50.672;18.690;2023-12-20T04:33:35;98236.80;;;6.06
71081;BMP180;58740;50.672;18.690;2023-12-20T04:36:09;98245.20;;;6.00
71081;BMP180;58740;50.672;18.690;2023-12-20T04:38:42;98237.80;;;6.02
71081;BMP180;58740;50.672;18.690;2023-12-20T04:41:16;98232.80;;;6.02
71081;BMP180;58740;50.672;18.690;2023-12-20T04:43:50;98241.80;;;6.00
71081;BMP180;58740;50.672;18.690;2023-12-20T04:46:23;98243.00;;;6.00
71081;BMP180;58740;50.672;18.690;2023-12-20T04:48:57;98240.00;;;6.00
71081;BMP180;58740;50.672;18.690;2023-12-20T04:51:32;98241.80;;;6.00
71081;BMP180;58740;50.672;18.690;2023-12-20T04:54:06;98244.40;;;6.00
71081;BMP180;58740;50.672;18.690;2023-12-20T04:56:39;98241.60;;;6.00
71081;BMP180;58740;50.672;18.690;2023-12-20T04:59:12;98239.00;;;6.00
71081;BMP180;58740;50.672;18.690;2023-12-20T05:01:45;98235.40;;;6.00
71081;BMP180;58740;50.672;18.690;2023-12-20T05:04:19;98235.40;;;6.00
71081;BMP180;58740;50.672;18.690;2023-12-20T05:06:52;98231.60;;;6.00
71081;BMP180;58740;50.672;18.690;2023-12-20T05:09:25;98240.60;;;6.00
71081;BMP180;58740;50.672;18.690;2023-12-20T05:11:58;98241.80;;;6.00
71081;BMP180;58740;50.672;18.690;2023-12-20T05:14:32;98239.40;;;6.00
71081;BMP180;58740;50.672;18.690;2023-12-20T05:17:05;98239.80;;;6.00
71081;BMP180;58740;50.672;18.690;2023-12-20T05:19:39;98245.20;;;6.00
71081;BMP180;58740;50.672;18.690;2023-12-20T05:22:12;98239.20;;;6.00
71081;BMP180;58740;50.672;18.690;2023-12-20T05:24:45;98246.00;;;6.00
71081;BMP180;58740;50.672;18.690;2023-12-20T05:27:18;98241.40;;;6.00
71081;BMP180;58740;50.672;18.690;2023-12-20T05:29:52;98243.80;;;6.00
71081;BMP180;58740;50.672;18.690;2023-12-20T05:32:29;98240.20;;;6.00
71081;BMP180;58740;50.672;18.690;2023-12-20T05:35:03;98234.20;;;6.00
71081;BMP180;58740;50.672;18.690;2023-12-20T05:37:37;98239.40;;;6.00
71081;BMP180;58740;50.672;18.690;2023-12-20T05:40:11;98231.60;;;6.00
71081;BMP180;58740;50.672;18.690;2023-12-20T05:42:45;98235.80;;;6.00
71081;BMP180;58740;50.672;18.690;2023-12-20T05:45:18;98231.00;;;6.00
71081;BMP180;58740;50.672;18.690;2023-12-20T05:47:52;98233.00;;;6.00
71081;BMP180;58740;50.672;18.690;2023-12-20T05:50:25;98234.00;;;6.00
71081;BMP180;58740;50.672;18.690;2023-12-20T05:52:58;98231.80;;;5.96
71081;BMP180;58740;50.672;18.690;2023-12-20T05:55:32;98228.00;;;5.96
71081;BMP180;58740;50.672;18.690;2023-12-20T05:58:05;98226.80;;;5.96
71081;BMP180;58740;50.672;18.690;2023-12-20T06:00:39;98220.40;;;5.90
71081;BMP180;58740;50.672;18.690;2023-12-20T06:03:12;98219.20;;;5.90
71081;BMP180;58740;50.672;18.690;2023-12-20T06:05:45;98216.00;;;5.90
71081;BMP180;58740;50.672;18.690;2023-12-20T06:08:18;98226.60;;;5.90
71081;BMP180;58740;50.672;18.690;2023-12-20T06:10:52;98227.00;;;5.90
71081;BMP180;58740;50.672;18.690;2023-12-20T06:13:25;98229.00;;;5.90
71081;BMP180;58740;50.672;18.690;2023-12-20T06:15:58;98224.00;;;5.90
71081;BMP180;58740;50.672;18.690;2023-12-20T06:18:32;98231.20;;;5.90
71081;BMP180;58740;50.672;18.690;2023-12-20T06:21:06;98236.00;;;5.90
71081;BMP180;58740;50.672;18.690;2023-12-20T06:23:40;98237.40;;;5.90
71081;BMP180;58740;50.672;18.690;2023-12-20T06:26:13;98235.00;;;5.90
71081;BMP180;58740;50.672;18.690;2023-12-20T06:28:47;98234.00;;;5.90
71081;BMP180;58740;50.672;18.690;2023-12-20T06:31:20;98233.20;;;5.90
71081;BMP180;58740;50.672;18.690;2023-12-20T06:33:53;98233.00;;;5.88
71081;BMP180;58740;50.672;18.690;2023-12-20T06:36:30;98235.20;;;5.88
71081;BMP180;58740;50.672;18.690;2023-12-20T06:39:03;98241.80;;;5.82
71081;BMP180;58740;50.672;18.690;2023-12-20T06:41:36;98241.80;;;5.80
71081;BMP180;58740;50.672;18.690;2023-12-20T06:44:10;98242.80;;;5.80
71081;BMP180;58740;50.672;18.690;2023-12-20T06:46:43;98248.40;;;5.80
71081;BMP180;58740;50.672;18.690;2023-12-20T06:49:17;98245.60;;;5.80
71081;BMP180;58740;50.672;18.690;2023-12-20T06:51:50;98247.80;;;5.80
71081;BMP180;58740;50.672;18.690;2023-12-20T06:54:25;98248.40;;;5.80
71081;BMP180;58740;50.672;18.690;2023-12-20T06:56:58;98249.80;;;5.80
71081;BMP180;58740;50.672;18.690;2023-12-20T06:59:31;98250.00;;;5.80
71081;BMP180;58740;50.672;18.690;2023-12-20T07:02:05;98253.60;;;5.80
71081;BMP180;58740;50.672;18.690;2023-12-20T07:04:45;98255.60;;;5.80
71081;BMP180;58740;50.672;18.690;2023-12-20T07:07:18;98255.80;;;5.80
71081;BMP180;58740;50.672;18.690;2023-12-20T07:09:52;98254.20;;;5.80
71081;BMP180;58740;50.672;18.690;2023-12-20T07:12:25;98260.60;;;5.80
71081;BMP180;58740;50.672;18.690;2023-12-20T07:14:58;98259.80;;;5.80
71081;BMP180;58740;50.672;18.690;2023-12-20T07:17:32;98261.80;;;5.80
71081;BMP180;58740;50.672;18.690;2023-12-20T07:20:08;98262.00;;;5.80
71081;BMP180;58740;50.672;18.690;2023-12-20T07:22:43;98265.80;;;5.74
71081;BMP180;58740;50.672;18.690;2023-12-20T07:25:16;98260.20;;;5.70
71081;BMP180;58740;50.672;18.690;2023-12-20T07:27:49;98268.40;;;5.74
71081;BMP180;58740;50.672;18.690;2023-12-20T07:30:23;98265.40;;;5.78
71081;BMP180;58740;50.672;18.690;2023-12-20T07:32:56;98268.40;;;5.74
71081;BMP180;58740;50.672;18.690;2023-12-20T07:35:30;98266.40;;;5.74
71081;BMP180;58740;50.672;18.690;2023-12-20T07:38:03;98264.40;;;5.70
71081;BMP180;58740;50.672;18.690;2023-12-20T07:40:37;98266.20;;;5.70
71081;BMP180;58740;50.672;18.690;2023-12-20T07:43:10;98265.80;;;5.70
71081;BMP180;58740;50.672;18.690;2023-12-20T07:45:44;98269.00;;;5.70
71081;BMP180;58740;50.672;18.690;2023-12-20T07:48:17;98264.60;;;5.70
71081;BMP180;58740;50.672;18.690;2023-12-20T07:50:50;98269.60;;;5.70
71081;BMP180;58740;50.672;18.690;2023-12-20T07:53:24;98273.20;;;5.70
71081;BMP180;58740;50.672;18.690;2023-12-20T07:55:58;98264.40;;;5.70
71081;BMP180;58740;50.672;18.690;2023-12-20T07:58:31;98265.60;;;5.70
71081;BMP180;58740;50.672;18.690;2023-12-20T08:01:22;98264.80;;;5.70
71081;BMP180;58740;50.672;18.690;2023-12-20T08:03:55;98264.00;;;5.66
71081;BMP180;58740;50.672;18.690;2023-12-20T08:06:29;98255.60;;;5.64
71081;BMP180;58740;50.672;18.690;2023-12-20T08:09:02;98263.80;;;5.60
71081;BMP180;58740;50.672;18.690;2023-12-20T08:11:38;98263.40;;;5.60
71081;BMP180;58740;50.672;18.690;2023-12-20T08:14:11;98260.80;;;5.60
71081;BMP180;58740;50.672;18.690;2023-12-20T08:16:45;98258.00;;;5.60
71081;BMP180;58740;50.672;18.690;2023-12-20T08:19:18;98261.60;;;5.60
71081;BMP180;58740;50.672;18.690;2023-12-20T08:21:52;98267.40;;;5.60
71081;BMP180;58740;50.672;18.690;2023-12-20T08:24:25;98269.20;;;5.60
71081;BMP180;58740;50.672;18.690;2023-12-20T08:26:58;98275.60;;;5.60
71081;BMP180;58740;50.672;18.690;2023-12-20T08:29:31;98275.80;;;5.60
71081;BMP180;58740;50.672;18.690;2023-12-20T08:32:06;98274.80;;;5.60
71081;BMP180;58740;50.672;18.690;2023-12-20T08:34:39;98275.60;;;5.60
71081;BMP180;58740;50.672;18.690;2023-12-20T08:37:13;98283.40;;;5.60
71081;BMP180;58740;50.672;18.690;2023-12-20T08:39:46;98279.40;;;5.58
71081;BMP180;58740;50.672;18.690;2023-12-20T08:42:19;98284.20;;;5.58
71081;BMP180;58740;50.672;18.690;2023-12-20T08:44:52;98290.20;;;5.56
71081;BMP180;58740;50.672;18.690;2023-12-20T08:47:26;98290.80;;;5.58
71081;BMP180;58740;50.672;18.690;2023-12-20T08:49:59;98283.60;;;5.60
71081;BMP180;58740;50.672;18.690;2023-12-20T08:52:34;98286.60;;;5.60
71081;BMP180;58740;50.672;18.690;2023-12-20T08:55:09;98292.80;;;5.60
71081;BMP180;58740;50.672;18.690;2023-12-20T08:57:42;98289.60;;;5.60
71081;BMP180;58740;50.672;18.690;2023-12-20T09:00:18;98288.40;;;5.50
71081;BMP180;58740;50.672;18.690;2023-12-20T09:02:56;98288.00;;;5.50
71081;BMP180;58740;50.672;18.690;2023-12-20T09:05:29;98288.80;;;5.50
71081;BMP180;58740;50.672;18.690;2023-12-20T09:08:03;98284.00;;;5.50
71081;BMP180;58740;50.672;18.690;2023-12-20T09:10:37;98289.60;;;5.50
71081;BMP180;58740;50.672;18.690;2023-12-20T09:13:10;98288.20;;;5.50
71081;BMP180;58740;50.672;18.690;2023-12-20T09:15:44;98289.60;;;5.50
71081;BMP180;58740;50.672;18.690;2023-12-20T09:18:17;98291.00;;;5.50
71081;BMP180;58740;50.672;18.690;2023-12-20T09:20:50;98290.80;;;5.50
71081;BMP180;58740;50.672;18.690;2023-12-20T09:23:24;98287.00;;;5.50
71081;BMP180;58740;50.672;18.690;2023-12-20T09:25:57;98295.40;;;5.50
71081;BMP180;58740;50.672;18.690;2023-12-20T09:28:30;98283.80;;;5.50
71081;BMP180;58740;50.672;18.690;2023-12-20T09:31:09;98285.80;;;5.50
71081;BMP180;58740;50.672;18.690;2023-12-20T09:33:42;98281.40;;;5.50
71081;BMP180;58740;50.672;18.690;2023-12-20T09:36:15;98279.00;;;5.50
71081;BMP180;58740;50.672;18.690;2023-12-20T09:38:49;98273.60;;;5.50
71081;BMP180;58740;50.672;18.690;2023-12-20T09:41:24;98262.80;;;5.50
71081;BMP180;58740;50.672;18.690;2023-12-20T09:44:02;98267.20;;;5.50
71081;BMP180;58740;50.672;18.690;2023-12-20T09:46:36;98265.80;;;5.44
71081;BMP180;58740;50.672;18.690;2023-12-20T09:49:12;98268.40;;;5.40
71081;BMP180;58740;50.672;18.690;2023-12-20T09:51:47;98265.40;;;5.46
71081;BMP180;58740;50.672;18.690;2023-12-20T09:54:22;98261.20;;;5.40
71081;BMP180;58740;50.672;18.690;2023-12-20T09:56:55;98267.40;;;5.42
71081;BMP180;58740;50.672;18.690;2023-12-20T09:59:29;98259.60;;;5.40
71081;BMP180;58740;50.672;18.690;2023-12-20T10:02:05;98258.40;;;5.46
71081;BMP180;58740;50.672;18.690;2023-12-20T10:04:48;98259.80;;;5.46
71081;BMP180;58740;50.672;18.690;2023-12-20T10:07:21;98255.20;;;5.48
71081;BMP180;58740;50.672;18.690;2023-12-20T10:09:57;98262.20;;;5.46
71081;BMP180;58740;50.672;18.690;2023-12-20T10:12:30;98258.60;;;5.42
71081;BMP180;58740;50.672;18.690;2023-12-20T10:15:05;98256.00;;;5.44
71081;BMP180;58740;50.672;18.690;2023-12-20T10:17:38;98251.00;;;5.48
71081;BMP180;58740;50.672;18.690;2023-12-20T10:20:13;98242.40;;;5.50
71081;BMP180;58740;50.672;18.690;2023-12-20T10:22:46;98249.60;;;5.50
71081;BMP180;58740;50.672;18.690;2023-12-20T10:25:21;98247.00;;;5.50
71081;BMP180;58740;50.672;18.690;2023-12-20T10:28:12;98248.20;;;5.50
71081;BMP180;58740;50.672;18.690;2023-12-20T10:30:46;98246.00;;;5.50
71081;BMP180;58740;50.672;18.690;2023-12-20T10:33:27;98247.00;;;5.50
71081;BMP180;58740;50.672;18.690;2023-12-20T10:36:02;98243.40;;;5.50
71081;BMP180;58740;50.672;18.690;2023-12-20T10:38:37;98242.40;;;5.50
71081;BMP180;58740;50.672;18.690;2023-12-20T10:41:15;98241.40;;;5.50
71081;BMP180;58740;50.672;18.690;2023-12-20T10:43:50;98249.40;;;5.50
71081;BMP180;58740;50.672;18.690;2023-12-20T10:46:23;98253.80;;;5.50
71081;BMP180;58740;50.672;18.690;2023-12-20T10:48:58;98246.00;;;5.50
71081;BMP180;58740;50.672;18.690;2023-12-20T10:51:33;98239.80;;;5.50
71081;BMP180;58740;50.672;18.690;2023-12-20T10:54:07;98241.20;;;5.50
71081;BMP180;58740;50.672;18.690;2023-12-20T10:56:41;98242.20;;;5.50
71081;BMP180;58740;50.672;18.690;2023-12-20T10:59:20;98244.40;;;5.50
71081;BMP180;58740;50.672;18.690;2023-12-20T11:01:58;98247.60;;;5.50
71081;BMP180;58740;50.672;18.690;2023-12-20T11:04:53;98249.40;;;5.50
71081;BMP180;58740;50.672;18.690;2023-12-20T11:07:35;98252.40;;;5.50
71081;BMP180;58740;50.672;18.690;2023-12-20T11:10:16;98243.40;;;5.50
71081;BMP180;58740;50.672;18.690;2023-12-20T11:12:57;98255.00;;;5.50
71081;BMP180;58740;50.672;18.690;2023-12-20T11:15:32;98250.20;;;5.50
71081;BMP180;58740;50.672;18.690;2023-12-20T11:18:07;98244.60;;;5.50
71081;BMP180;58740;50.672;18.690;2023-12-20T11:20:42;98243.40;;;5.50
71081;BMP180;58740;50.672;18.690;2023-12-20T11:23:15;98246.00;;;5.50
71081;BMP180;58740;50.672;18.690;2023-12-20T11:25:55;98238.40;;;5.50
71081;BMP180;58740;50.672;18.690;2023-12-20T11:28:30;98240.60;;;5.50
71081;BMP180;58740;50.672;18.690;2023-12-20T11:31:04;98233.80;;;5.50
71081;BMP180;58740;50.672;18.690;2023-12-20T11:33:41;98240.00;;;5.50
71081;BMP180;58740;50.672;18.690;2023-12-20T11:36:21;98232.40;;;5.50
71081;BMP180;58740;50.672;18.690;2023-12-20T11:38:58;98232.80;;;5.50
71081;BMP180;58740;50.672;18.690;2023-12-20T11:41:35;98226.40;;;5.50
71081;BMP180;58740;50.672;18.690;2023-12-20T11:44:09;98220.80;;;5.50
71081;BMP180;58740;50.672;18.690;2023-12-20T11:46:43;98226.60;;;5.50
71081;BMP180;58740;50.672;18.690;2023-12-20T11:49:17;98221.40;;;5.50
71081;BMP180;58740;50.672;18.690;2023-12-20T11:51:51;98221.60;;;5.54
71081;BMP180;58740;50.672;18.690;2023-12-20T11:54:24;98227.40;;;5.58
71081;BMP180;58740;50.672;18.690;2023-12-20T11:56:57;98229.20;;;5.60
71081;BMP180;58740;50.672;18.690;2023-12-20T11:59:31;98223.80;;;5.60
71081;BMP180;58740;50.672;18.690;2023-12-20T12:02:05;98221.80;;;5.60
71081;BMP180;58740;50.672;18.690;2023-12-20T12:04:38;98221.20;;;5.60
71081;BMP180;58740;50.672;18.690;2023-12-20T12:07:14;98230.20;;;5.60
71081;BMP180;58740;50.672;18.690;2023-12-20T12:09:48;98225.20;;;5.60
71081;BMP180;58740;50.672;18.690;2023-12-20T12:12:22;98227.20;;;5.60
71081;BMP180;58740;50.672;18.690;2023-12-20T12:14:58;98220.60;;;5.60
71081;BMP180;58740;50.672;18.690;2023-12-20T12:17:31;98221.40;;;5.60
71081;BMP180;58740;50.672;18.690;2023-12-20T12:20:10;98221.80;;;5.68
71081;BMP180;58740;50.672;18.690;2023-12-20T12:22:44;98219.20;;;5.70
71081;BMP180;58740;50.672;18.690;2023-12-20T12:25:20;98215.80;;;5.70
71081;BMP180;58740;50.672;18.690;2023-12-20T12:27:55;98218.20;;;5.70
71081;BMP180;58740;50.672;18.690;2023-12-20T12:30:29;98216.40;;;5.70
71081;BMP180;58740;50.672;18.690;2023-12-20T12:33:10;98214.60;;;5.70
71081;BMP180;58740;50.672;18.690;2023-12-20T12:35:45;98207.60;;;5.70
71081;BMP180;58740;50.672;18.690;2023-12-20T12:38:22;98194.80;;;5.70
71081;BMP180;58740;50.672;18.690;2023-12-20T12:40:57;98199.20;;;5.70
71081;BMP180;58740;50.672;18.690;2023-12-20T12:43:30;98198.00;;;5.70
71081;BMP180;58740;50.672;18.690;2023-12-20T12:46:08;98190.20;;;5.70
71081;BMP180;58740;50.672;18.690;2023-12-20T12:48:41;98187.60;;;5.72
71081;BMP180;58740;50.672;18.690;2023-12-20T12:51:18;98182.40;;;5.78
71081;BMP180;58740;50.672;18.690;2023-12-20T12:53:51;98186.00;;;5.80
71081;BMP180;58740;50.672;18.690;2023-12-20T12:56:24;98183.60;;;5.80
71081;BMP180;58740;50.672;18.690;2023-12-20T12:58:57;98184.80;;;5.82
71081;BMP180;58740;50.672;18.690;2023-12-20T13:01:31;98176.00;;;5.82
71081;BMP180;58740;50.672;18.690;2023-12-20T13:04:04;98171.80;;;5.82
71081;BMP180;58740;50.672;18.690;2023-12-20T13:06:43;98174.60;;;5.90
71081;BMP180;58740;50.672;18.690;2023-12-20T13:09:17;98170.00;;;5.90
71081;BMP180;58740;50.672;18.690;2023-12-20T13:11:51;98173.40;;;5.90
71081;BMP180;58740;50.672;18.690;2023-12-20T13:14:24;98174.80;;;5.90
71081;BMP180;58740;50.672;18.690;2023-12-20T13:16:57;98171.00;;;5.90
71081;BMP180;58740;50.672;18.690;2023-12-20T13:19:30;98171.00;;;5.90
71081;BMP180;58740;50.672;18.690;2023-12-20T13:22:04;98171.80;;;5.90
71081;BMP180;58740;50.672;18.690;2023-12-20T13:24:38;98173.60;;;5.90
71081;BMP180;58740;50.672;18.690;2023-12-20T13:27:12;98171.40;;;5.90
71081;BMP180;58740;50.672;18.690;2023-12-20T13:29:45;98177.80;;;5.88
71081;BMP180;58740;50.672;18.690;2023-12-20T13:32:18;98179.20;;;5.90
71081;BMP180;58740;50.672;18.690;2023-12-20T13:34:52;98179.00;;;5.84
71081;BMP180;58740;50.672;18.690;2023-12-20T13:37:26;98182.20;;;5.80
71081;BMP180;58740;50.672;18.690;2023-12-20T13:39:59;98185.20;;;5.80
71081;BMP180;58740;50.672;18.690;2023-12-20T13:42:33;98180.40;;;5.80
71081;BMP180;58740;50.672;18.690;2023-12-20T13:45:08;98184.00;;;5.80
71081;BMP180;58740;50.672;18.690;2023-12-20T13:47:41;98184.60;;;5.80
71081;BMP180;58740;50.672;18.690;2023-12-20T13:50:15;98183.00;;;5.78
71081;BMP180;58740;50.672;18.690;2023-12-20T13:52:49;98177.60;;;5.78
71081;BMP180;58740;50.672;18.690;2023-12-20T13:55:23;98180.80;;;5.72
71081;BMP180;58740;50.672;18.690;2023-12-20T13:57:57;98180.20;;;5.70
71081;BMP180;58740;50.672;18.690;2023-12-20T14:00:31;98182.40;;;5.70
71081;BMP180;58740;50.672;18.690;2023-12-20T14:03:05;98173.40;;;5.70
71081;BMP180;58740;50.672;18.690;2023-12-20T14:05:39;98177.00;;;5.70
71081;BMP180;58740;50.672;18.690;2023-12-20T14:08:12;98182.00;;;5.64
71081;BMP180;58740;50.672;18.690;2023-12-20T14:10:46;98167.00;;;5.60
71081;BMP180;58740;50.672;18.690;2023-12-20T14:13:20;98166.40;;;5.60
71081;BMP180;58740;50.672;18.690;2023-12-20T14:15:54;98169.60;;;5.58
71081;BMP180;58740;50.672;18.690;2023-12-20T14:18:27;98168.00;;;5.50
71081;BMP180;58740;50.672;18.690;2023-12-20T14:21:02;98173.20;;;5.50
71081;BMP180;58740;50.672;18.690;2023-12-20T14:23:35;98168.80;;;5.50
71081;BMP180;58740;50.672;18.690;2023-12-20T14:26:09;98160.20;;;5.50
71081;BMP180;58740;50.672;18.690;2023-12-20T14:28:46;98157.60;;;5.50
71081;BMP180;58740;50.672;18.690;2023-12-20T14:31:19;98154.00;;;5.42
71081;BMP180;58740;50.672;18.690;2023-12-20T14:33:54;98155.20;;;5.40
71081;BMP180;58740;50.672;18.690;2023-12-20T14:36:28;98158.60;;;5.40
71081;BMP180;58740;50.672;18.690;2023-12-20T14:39:02;98159.20;;;5.40
71081;BMP180;58740;50.672;18.690;2023-12-20T14:41:36;98162.20;;;5.40
71081;BMP180;58740;50.672;18.690;2023-12-20T14:44:09;98163.00;;;5.40
71081;BMP180;58740;50.672;18.690;2023-12-20T14:46:43;98162.00;;;5.40
71081;BMP180;58740;50.672;18.690;2023-12-20T14:49:16;98170.60;;;5.40